Time;durP1;ratioP1;P1;durP2;ratioP2;P2;SDS_P1;SDS_P2;PMS_P1;PMS_P2;Temp;Humidity;BMP_temperature;BMP_pressure;BME280_temperature;BME280_humidity;BME280_pressure;Samples;Min_cycle;Max_cycle;Signal;HPM_P1;HPM_P2
2023/10/02 00:00:32;;;;;;;20.10;5.50;;;;;;;20.09;51.23;99612.41;67867;1276;1016634;-64
2023/10/02 00:07:15;;;;;;;23.50;5.40;;;;;;;20.24;51.05;99612.39;67926;1276;1016471;-65
2023/10/02 00:10:18;;;;;;;20.90;4.90;;;;;;;20.17;51.14;99615.13;67912;1276;1018685;-65
2023/10/02 00:13:21;;;;;;;21.60;5.40;;;;;;;20.14;51.20;99615.92;67876;1276;1016472;-68
2023/10/02 00:16:25;;;;;;;20.50;5.00;;;;;;;20.17;51.19;99612.08;67846;1276;1016430;-65
2023/10/02 00:19:28;;;;;;;22.40;5.30;;;;;;;20.30;51.05;99610.25;67910;1276;1017295;-64
2023/10/02 00:22:38;;;;;;;19.40;4.70;;;;;;;20.47;50.82;99608.53;67874;1276;1016397;-66
2023/10/02 00:25:51;;;;;;;20.60;5.40;;;;;;;20.63;50.56;99606.94;67869;1276;1016117;-66
2023/10/02 00:28:57;;;;;;;21.90;5.30;;;;;;;20.69;50.42;99606.59;67881;1276;1016153;-65
2023/10/02 00:32:00;;;;;;;25.30;5.30;;;;;;;20.59;50.52;99608.23;67908;1276;1017222;-66
2023/10/02 00:35:02;;;;;;;;;;;;;;;20.62;50.59;99610.38;67897;1276;1016182;-66
2023/10/02 00:38:04;;;;;;;22.70;5.10;;;;;;;20.73;50.57;99612.66;67889;1276;1016746;-64
2023/10/02 00:41:08;;;;;;;23.10;5.70;;;;;;;20.83;50.40;99612.77;67917;1276;1016457;-64
2023/10/02 00:44:13;;;;;;;25.00;5.70;;;;;;;20.81;50.33;99609.27;67885;1276;1016455;-64
2023/10/02 00:47:16;;;;;;;23.70;5.70;;;;;;;20.87;50.20;99608.86;67867;1276;1016482;-65
2023/10/02 00:50:18;;;;;;;23.80;5.90;;;;;;;20.87;50.05;99602.14;67872;1276;1016433;-65
2023/10/02 00:53:30;;;;;;;20.20;6.10;;;;;;;20.88;50.17;99598.48;67903;1276;1016553;-65
2023/10/02 00:56:34;;;;;;;21.00;5.60;;;;;;;20.94;50.07;99595.83;67871;1276;1016414;-65
2023/10/02 00:59:37;;;;;;;22.60;5.90;;;;;;;21.04;49.91;99593.09;67851;1276;1016561;-64
2023/10/02 01:02:41;;;;;;;23.60;5.50;;;;;;;21.15;49.58;99598.29;67866;1276;1016442;-66
2023/10/02 01:05:47;;;;;;;24.00;5.70;;;;;;;20.99;49.69;99594.05;67911;1276;1016185;-65
2023/10/02 01:08:50;;;;;;;20.90;5.30;;;;;;;20.95;49.87;99598.58;67929;1276;1019608;-67
2023/10/02 01:11:52;;;;;;;23.20;4.90;;;;;;;21.00;50.00;99599.34;67879;1276;1016220;-63
2023/10/02 01:15:06;;;;;;;20.20;5.20;;;;;;;21.00;50.00;99599.88;67840;1276;1016452;-65
2023/10/02 01:18:21;;;;;;;22.60;4.70;;;;;;;21.06;49.84;99604.24;67860;1276;1018092;-68
2023/10/02 01:21:24;;;;;;;21.80;4.90;;;;;;;20.92;50.13;99608.41;67920;1276;1018504;-66
2023/10/02 01:24:27;;;;;;;;;;;;;;;20.71;50.64;99607.99;67880;1276;1016156;-64
2023/10/02 01:27:40;;;;;;;;;;;;;;;20.74;50.68;99609.34;67920;1276;1015912;-65
2023/10/02 01:30:44;;;;;;;21.70;4.90;;;;;;;20.89;50.50;99608.17;67854;1276;1016390;-65
2023/10/02 01:33:47;;;;;;;18.50;4.40;;;;;;;20.91;50.37;99611.20;67873;1276;1016318;-64
2023/10/02 01:36:50;;;;;;;17.10;4.80;;;;;;;20.91;50.47;99616.31;67862;1276;1016942;-65
2023/10/02 01:40:28;;;;;;;23.20;5.80;;;;;;;20.91;50.45;99617.74;67908;1276;1016474;-66
2023/10/02 01:43:16;;;;;;;24.80;6.10;;;;;;;20.91;50.42;99620.27;67917;1276;1016484;-65
2023/10/02 01:46:18;;;;;;;20.40;5.00;;;;;;;20.85;50.59;99616.73;67881;1276;1016885;-65
2023/10/02 01:49:27;;;;;;;22.80;5.70;;;;;;;20.87;50.67;99616.73;67848;1276;1016499;-68
2023/10/02 01:52:31;;;;;;;25.00;6.20;;;;;;;20.91;50.50;99611.48;67926;1276;1016481;-66
2023/10/02 01:55:35;;;;;;;23.50;6.20;;;;;;;20.93;50.47;99614.54;67886;1276;1016448;-65
2023/10/02 01:58:39;;;;;;;26.90;6.10;;;;;;;20.97;50.38;99617.54;67898;1276;1016410;-66
2023/10/02 02:01:51;;;;;;;19.70;4.50;;;;;;;20.96;50.33;99615.91;67891;1276;1016428;-66
2023/10/02 02:04:54;;;;;;;19.80;4.80;;;;;;;20.93;50.40;99609.94;67906;1276;1016557;-65
2023/10/02 02:07:56;;;;;;;21.40;4.60;;;;;;;20.89;50.41;99610.30;67863;1276;1016412;-64
2023/10/02 02:11:14;;;;;;;17.60;4.10;;;;;;;20.87;50.32;99608.73;67860;1276;1015955;-64
2023/10/02 02:14:19;;;;;;;20.60;4.80;;;;;;;20.88;50.29;99610.95;67837;1276;1016459;-65
2023/10/02 02:17:21;;;;;;;21.80;4.30;;;;;;;20.71;50.54;99613.89;67885;1276;1016398;-64
2023/10/02 02:20:43;;;;;;;18.40;4.10;;;;;;;20.66;50.46;99609.52;67878;1276;1016526;-65
2023/10/02 02:23:46;;;;;;;15.90;4.10;;;;;;;20.71;50.53;99607.80;67903;1276;1016023;-67
2023/10/02 02:26:57;;;;;;;18.20;4.20;;;;;;;20.69;50.68;99605.66;67840;1276;1016356;-65
2023/10/02 02:29:59;;;;;;;21.30;4.10;;;;;;;20.65;50.77;99606.04;67892;1276;1016292;-67
2023/10/02 02:33:07;;;;;;;18.50;4.10;;;;;;;20.61;50.77;99604.42;67914;1276;1016407;-64
2023/10/02 02:36:09;;;;;;;18.40;4.10;;;;;;;20.72;50.60;99611.66;67880;1276;1018891;-64
2023/10/02 02:39:18;;;;;;;14.90;3.80;;;;;;;20.65;50.69;99607.10;67885;1276;1016612;-65
2023/10/02 02:42:22;;;;;;;17.90;4.40;;;;;;;20.58;50.81;99616.82;67883;1276;1019667;-64
2023/10/02 02:45:29;;;;;;;19.50;4.20;;;;;;;20.57;50.81;99617.95;67868;1276;1016508;-67
2023/10/02 02:48:43;;;;;;;16.30;4.20;;;;;;;20.60;50.78;99620.67;67864;1276;1016373;-68
2023/10/02 02:51:48;;;;;;;17.50;4.10;;;;;;;20.62;50.71;99623.59;67867;1276;1016367;-66
2023/10/02 02:54:58;;;;;;;18.60;4.20;;;;;;;20.78;50.47;99626.07;67909;1276;1016462;-68
2023/10/02 02:58:01;;;;;;;18.80;4.40;;;;;;;20.85;50.43;99626.45;67871;1276;1018557;-64
2023/10/02 03:01:06;;;;;;;20.90;4.20;;;;;;;20.92;50.29;99631.02;67903;1276;1018947;-66
2023/10/02 03:04:12;;;;;;;20.90;4.00;;;;;;;20.85;50.35;99625.02;67874;1276;1016525;-66
2023/10/02 03:07:29;;;;;;;22.00;4.70;;;;;;;20.95;50.19;99628.64;67877;1276;1016421;-66
2023/10/02 03:10:36;;;;;;;17.20;3.70;;;;;;;20.97;50.12;99631.41;67873;1276;1016275;-65
2023/10/02 03:13:40;;;;;;;17.00;3.80;;;;;;;20.93;50.16;99628.60;67895;1276;1017602;-65
2023/10/02 03:16:45;;;;;;;19.20;4.10;;;;;;;20.92;50.25;99625.99;67877;1276;1016479;-64
2023/10/02 03:19:47;;;;;;;15.80;3.80;;;;;;;20.96;50.26;99618.35;67908;1276;1017697;-65
2023/10/02 03:22:52;;;;;;;18.60;4.30;;;;;;;20.88;50.44;99620.36;67862;1276;1018177;-65
2023/10/02 03:25:56;;;;;;;18.20;4.00;;;;;;;20.74;50.63;99620.91;67859;1276;1016244;-65
2023/10/02 03:29:02;;;;;;;18.30;4.10;;;;;;;20.76;50.64;99616.78;67852;1276;1016314;-66
2023/10/02 03:32:05;;;;;;;17.00;3.80;;;;;;;20.75;50.71;99617.97;67839;1276;1016453;-67
2023/10/02 03:35:12;;;;;;;20.20;4.30;;;;;;;20.82;50.56;99615.61;67907;1276;1016317;-64
2023/10/02 03:38:14;;;;;;;18.00;3.60;;;;;;;20.90;50.41;99625.09;67883;1276;1016520;-64
2023/10/02 03:41:16;;;;;;;17.80;3.60;;;;;;;20.90;50.29;99623.02;67842;1276;1017379;-64
2023/10/02 03:44:19;;;;;;;20.10;4.00;;;;;;;20.86;50.39;99622.52;67862;1276;1016045;-68
2023/10/02 03:47:22;;;;;;;20.40;4.30;;;;;;;20.86;50.41;99617.71;67877;1276;1016068;-68
2023/10/02 03:50:25;;;;;;;18.60;4.30;;;;;;;20.90;50.38;99616.76;67834;1276;1016294;-64
2023/10/02 03:53:30;;;;;;;;;;;;;;;21.00;50.22;99610.41;67890;1276;1016499;-64
2023/10/02 03:56:36;;;;;;;22.10;4.20;;;;;;;20.94;50.08;99617.98;67846;1276;1016227;-66
2023/10/02 03:59:52;;;;;;;19.80;4.30;;;;;;;20.84;50.19;99622.19;67822;1276;1016108;-65
2023/10/02 04:02:54;;;;;;;22.00;4.20;;;;;;;20.58;50.58;99624.77;67874;1276;1016388;-66
2023/10/02 04:05:56;;;;;;;17.40;4.40;;;;;;;20.53;50.75;99626.33;67824;1276;1016446;-65
2023/10/02 04:09:08;;;;;;;15.20;3.90;;;;;;;20.56;50.87;99630.96;67883;1276;1016436;-64
2023/10/02 04:12:12;;;;;;;18.10;4.00;;;;;;;20.61;50.85;99631.67;67823;1276;1016376;-65
2023/10/02 04:15:15;;;;;;;16.90;4.20;;;;;;;20.61;50.73;99627.71;67844;1276;1016226;-66
2023/10/02 04:18:45;;;;;;;19.60;4.00;;;;;;;20.56;50.92;99627.98;67880;1276;1016706;-65
2023/10/02 04:21:42;;;;;;;21.00;4.50;;;;;;;20.49;51.10;99627.95;67898;1276;1016108;-64
2023/10/02 04:25:03;;;;;;;20.90;4.20;;;;;;;20.52;50.90;99624.05;67870;1276;1016357;-64
2023/10/02 04:28:08;;;;;;;20.00;4.80;;;;;;;20.42;51.02;99626.53;67893;1276;1015787;-65
2023/10/02 04:31:11;;;;;;;19.80;5.30;;;;;;;20.38;51.13;99632.09;67900;1276;1016519;-64
2023/10/02 04:34:29;;;;;;;16.60;4.50;;;;;;;20.38;51.10;99633.70;67847;1276;1016457;-65
2023/10/02 04:37:36;;;;;;;22.00;4.60;;;;;;;20.36;51.09;99641.67;67897;1276;1018063;-65
2023/10/02 04:40:44;;;;;;;19.00;4.50;;;;;;;20.36;51.12;99642.59;67843;1276;1016431;-66
2023/10/02 04:43:48;;;;;;;18.40;4.20;;;;;;;20.40;51.22;99647.73;67843;1276;1016756;-65
2023/10/02 04:46:52;;;;;;;17.70;4.30;;;;;;;20.44;51.10;99644.66;67834;1276;1016203;-68
2023/10/02 04:53:22;;;;;;;20.40;5.00;;;;;;;20.48;51.21;99642.75;67842;1276;1016422;-64
2023/10/02 04:56:25;;;;;;;22.70;5.50;;;;;;;20.54;51.08;99633.69;67841;1276;1015993;-64
2023/10/02 04:59:50;;;;;;;19.70;4.50;;;;;;;20.70;50.95;99631.71;67850;1276;1016314;-65
2023/10/02 05:03:09;;;;;;;22.90;5.40;;;;;;;20.73;50.95;99633.98;67898;1276;1016397;-65
2023/10/02 05:06:16;;;;;;;20.10;4.90;;;;;;;20.86;50.81;99633.52;67903;1276;1016478;-65
2023/10/02 05:09:25;;;;;;;20.60;4.80;;;;;;;20.84;50.78;99636.70;67855;1276;1016337;-66
2023/10/02 05:12:28;;;;;;;24.80;5.70;;;;;;;20.76;50.99;99643.98;67893;1276;1016261;-66
2023/10/02 05:15:31;;;;;;;23.40;5.90;;;;;;;20.59;51.50;99640.67;67830;1276;1016506;-64
2023/10/02 05:18:34;;;;;;;22.70;6.10;;;;;;;20.68;51.30;99641.55;67909;1276;1016386;-66
2023/10/02 05:21:39;;;;;;;25.40;6.50;;;;;;;20.62;51.52;99640.56;67844;1276;1019407;-66
2023/10/02 05:24:42;;;;;;;21.80;5.70;;;;;;;20.73;51.41;99642.98;67893;1276;1016451;-64
2023/10/02 05:27:47;;;;;;;23.80;6.70;;;;;;;20.85;51.33;99641.36;67874;1276;1015774;-65
2023/10/02 05:30:49;;;;;;;24.70;6.90;;;;;;;20.88;51.28;99647.90;67850;1276;1016416;-64
2023/10/02 05:33:51;;;;;;;22.00;6.00;;;;;;;20.99;51.28;99647.83;67903;1276;1016301;-67
2023/10/02 05:37:11;;;;;;;28.10;6.80;;;;;;;21.09;51.21;99651.80;67897;1276;1016340;-67
2023/10/02 05:43:49;;;;;;;22.60;6.60;;;;;;;21.26;51.16;99654.23;67894;1276;1016460;-69
2023/10/02 05:47:05;;;;;;;19.40;5.50;;;;;;;21.42;51.00;99659.10;67837;1276;1016647;-66
2023/10/02 05:50:07;;;;;;;22.50;5.40;;;;;;;21.60;50.77;99661.42;67878;1276;1016466;-66
2023/10/02 05:53:10;;;;;;;19.70;5.30;;;;;;;21.65;50.81;99665.89;67856;1276;1016336;-65
2023/10/02 05:56:13;;;;;;;20.80;5.20;;;;;;;21.74;50.68;99669.91;67897;1276;1018243;-65
2023/10/02 05:59:24;;;;;;;22.40;6.00;;;;;;;21.80;50.76;99669.99;67862;1276;1016349;-65
2023/10/02 06:02:27;;;;;;;21.30;5.30;;;;;;;21.94;50.26;99673.89;67862;1276;1019683;-64
2023/10/02 06:05:29;;;;;;;21.80;5.80;;;;;;;22.01;50.26;99673.71;67850;1276;1016485;-66
2023/10/02 06:08:33;;;;;;;22.30;5.10;;;;;;;22.19;50.09;99673.79;67860;1276;1016203;-65
2023/10/02 06:11:59;;;;;;;22.20;5.40;;;;;;;22.53;49.65;99676.64;67852;1276;1016461;-64
2023/10/02 06:15:04;;;;;;;23.00;6.40;;;;;;;22.55;50.04;99672.86;67912;1276;1016447;-64
2023/10/02 06:18:06;;;;;;;21.70;5.80;;;;;;;22.75;49.70;99673.54;67898;1276;1016676;-65
2023/10/02 06:21:10;;;;;;;22.50;5.70;;;;;;;22.88;49.57;99680.33;67892;1276;1017142;-65
2023/10/02 06:24:12;;;;;;;24.00;6.00;;;;;;;23.02;49.67;99685.77;67887;1276;1016523;-65
2023/10/02 06:27:16;;;;;;;24.80;6.10;;;;;;;23.22;49.51;99686.43;67876;1276;1016696;-64
2023/10/02 06:30:18;;;;;;;23.40;6.80;;;;;;;23.38;49.53;99691.10;67923;1276;1015688;-64
2023/10/02 06:33:21;;;;;;;24.50;6.50;;;;;;;23.63;48.88;99697.80;67894;1276;1016280;-64
2023/10/02 06:36:24;;;;;;;26.60;7.20;;;;;;;23.71;48.96;99700.06;67856;1276;1016223;-64
2023/10/02 06:39:27;;;;;;;27.60;6.70;;;;;;;23.90;48.80;99704.62;67874;1276;1016424;-65
2023/10/02 06:42:30;;;;;;;25.40;7.00;;;;;;;24.09;48.65;99704.26;67896;1276;1016405;-67
2023/10/02 06:45:33;;;;;;;28.20;7.30;;;;;;;24.24;48.32;99705.48;67876;1276;1018010;-64
2023/10/02 06:48:36;;;;;;;25.90;7.00;;;;;;;24.31;48.39;99701.05;67850;1276;1019188;-64
2023/10/02 06:51:41;;;;;;;27.60;7.80;;;;;;;24.58;48.11;99701.42;67898;1276;1016331;-66
2023/10/02 06:54:44;;;;;;;23.80;7.50;;;;;;;24.84;48.00;99705.13;67843;1276;1016541;-69
2023/10/02 06:57:51;;;;;;;26.30;8.00;;;;;;;25.23;46.86;99701.30;67856;1276;1016823;-64
2023/10/02 07:01:01;;;;;;;29.60;8.90;;;;;;;25.33;46.84;99700.79;67844;1276;1017293;-68
2023/10/02 07:04:09;;;;;;;30.90;8.30;;;;;;;25.57;46.47;99693.85;67878;1276;1017265;-65
2023/10/02 07:07:12;;;;;;;25.00;7.60;;;;;;;25.78;46.14;99697.14;67884;1276;1015732;-66
2023/10/02 07:10:14;;;;;;;25.70;7.40;;;;;;;25.88;45.30;99697.27;67823;1276;1018686;-65
2023/10/02 07:13:20;;;;;;;25.30;6.90;;;;;;;25.65;45.46;99701.96;67852;1276;1016324;-64
2023/10/02 07:16:22;;;;;;;24.80;7.20;;;;;;;25.68;45.43;99707.70;67898;1276;1016396;-62
2023/10/02 07:19:38;;;;;;;24.00;6.40;;;;;;;25.75;45.06;99698.36;67853;1276;1015984;-62
2023/10/02 07:22:40;;;;;;;22.60;6.80;;;;;;;25.54;44.23;99697.58;67713;1276;1015955;-63
2023/10/02 07:25:50;;;;;;;;;;;;;;;25.56;44.98;99695.83;67778;1276;1016512;-62
2023/10/02 07:28:52;;;;;;;28.60;8.30;;;;;;;25.75;45.45;99697.52;67812;1276;1016406;-62
2023/10/02 07:31:55;;;;;;;26.40;7.20;;;;;;;26.16;44.79;99695.41;67828;1276;1016374;-64
2023/10/02 07:35:09;;;;;;;;;;;;;;;26.35;43.56;99689.70;67834;1276;1016314;-65
2023/10/02 07:38:12;;;;;;;25.30;7.00;;;;;;;26.30;43.87;99691.30;67892;1276;1019650;-67
2023/10/02 07:41:14;;;;;;;;;;;;;;;26.44;43.82;99691.16;67892;1276;1016393;-66
2023/10/02 07:44:16;;;;;;;24.40;6.50;;;;;;;26.79;44.11;99686.64;67906;1276;1016468;-62
2023/10/02 07:47:20;;;;;;;;;;;;;;;26.89;43.41;99686.74;67896;1276;1017277;-65
2023/10/02 07:50:33;;;;;;;26.80;7.10;;;;;;;26.94;43.77;99687.06;67899;1276;1016909;-63
2023/10/02 07:53:44;;;;;;;25.00;6.50;;;;;;;26.94;42.17;99689.27;67831;1276;1016466;-64
2023/10/02 07:56:47;;;;;;;25.30;6.40;;;;;;;26.79;43.39;99693.96;67876;1276;1016844;-63
2023/10/02 07:59:50;;;;;;;25.00;7.00;;;;;;;26.68;42.36;99695.13;67848;1276;1018908;-67
2023/10/02 08:02:52;;;;;;;25.40;7.20;;;;;;;26.41;42.71;99694.91;67887;1276;1016421;-64
2023/10/02 08:05:56;;;;;;;24.10;6.00;;;;;;;26.62;42.73;99695.26;67901;1276;1016392;-63
2023/10/02 08:12:29;;;;;;;22.60;6.30;;;;;;;26.81;43.24;99695.57;67891;1276;1016328;-65
2023/10/02 08:15:32;;;;;;;23.80;6.30;;;;;;;27.00;42.35;99690.00;67847;1276;1015853;-63
2023/10/02 08:18:55;;;;;;;23.40;6.80;;;;;;;27.08;42.33;99688.52;67896;1276;1016387;-64
2023/10/02 08:21:57;;;;;;;22.60;6.00;;;;;;;27.14;41.60;99685.41;67847;1276;1016179;-64
2023/10/02 08:24:59;;;;;;;21.60;6.20;;;;;;;26.87;41.22;99680.70;67845;1276;1016581;-64
2023/10/02 08:28:02;;;;;;;21.70;5.90;;;;;;;26.64;40.72;99680.95;67869;1276;1016207;-64
2023/10/02 08:31:13;;;;;;;22.60;5.50;;;;;;;26.59;40.40;99679.09;67897;1276;1016049;-65
2023/10/02 08:34:19;;;;;;;22.10;6.10;;;;;;;26.48;40.79;99676.76;67831;1276;1016318;-64
2023/10/02 08:37:23;;;;;;;22.70;6.40;;;;;;;26.57;40.87;99676.77;67834;1276;1016111;-66
2023/10/02 08:40:25;;;;;;;24.50;7.00;;;;;;;26.61;40.94;99670.41;67861;1276;1016493;-64
2023/10/02 08:43:28;;;;;;;22.70;6.20;;;;;;;26.82;41.53;99675.92;67860;1276;1016532;-64
2023/10/02 08:46:31;;;;;;;20.80;6.20;;;;;;;26.93;41.20;99672.07;67857;1276;1016460;-64
2023/10/02 08:49:34;;;;;;;22.20;5.90;;;;;;;27.13;41.11;99669.23;67857;1276;1016444;-64
2023/10/02 08:52:47;;;;;;;24.50;7.60;;;;;;;27.26;40.95;99676.33;67867;1276;1016437;-67
2023/10/02 08:55:54;;;;;;;20.20;5.50;;;;;;;27.22;39.97;99679.94;67837;1276;1016529;-64
2023/10/02 09:02:14;;;;;;;20.80;5.40;;;;;;;27.72;39.33;99680.80;67897;1276;1016441;-66
2023/10/02 09:05:17;;;;;;;21.00;5.70;;;;;;;27.93;39.82;99670.45;67884;1276;1018869;-64
2023/10/02 09:08:21;;;;;;;22.00;5.90;;;;;;;28.21;39.37;99672.97;67845;1276;1016429;-64
2023/10/02 09:11:28;;;;;;;21.30;5.40;;;;;;;27.70;39.23;99680.20;67741;1276;1016521;-63
2023/10/02 09:14:43;;;;;;;22.00;5.60;;;;;;;27.60;39.96;99668.80;67886;1276;1016272;-63
2023/10/02 09:17:45;;;;;;;23.60;5.90;;;;;;;27.57;39.19;99670.92;67836;1276;1016300;-63
2023/10/02 09:20:52;;;;;;;22.40;6.00;;;;;;;27.57;39.41;99676.28;67877;1276;1016380;-65
2023/10/02 09:24:00;;;;;;;22.60;5.70;;;;;;;27.68;39.19;99667.64;67891;1276;1016037;-66
2023/10/02 09:30:21;;;;;;;23.70;5.40;;;;;;;27.70;38.76;99665.58;67859;1276;1016732;-63
2023/10/02 09:33:26;;;;;;;20.00;5.30;;;;;;;27.67;39.42;99655.08;67842;1276;1016172;-66
2023/10/02 09:36:36;;;;;;;20.60;4.80;;;;;;;28.02;39.72;99652.94;67865;1276;1016401;-66
2023/10/02 09:39:38;;;;;;;19.40;5.20;;;;;;;28.36;38.40;99654.45;67842;1276;1016388;-64
2023/10/02 09:42:45;;;;;;;21.10;5.50;;;;;;;28.58;38.84;99655.30;67892;1276;1018487;-63
2023/10/02 09:45:48;;;;;;;20.20;5.60;;;;;;;28.80;37.76;99656.58;67824;1276;1016607;-63
2023/10/02 09:49:03;;;;;;;18.30;4.80;;;;;;;28.54;38.72;99661.02;67809;1276;1016510;-63
2023/10/02 09:52:15;;;;;;;20.10;5.10;;;;;;;28.88;38.76;99656.27;67839;1276;1016567;-64
2023/10/02 09:55:17;;;;;;;20.90;5.20;;;;;;;29.17;37.23;99662.90;67895;1276;1017313;-65
2023/10/02 09:58:27;;;;;;;19.50;5.20;;;;;;;28.62;37.27;99667.79;67881;1276;1016366;-63
2023/10/02 10:01:36;;;;;;;18.20;4.90;;;;;;;28.11;38.05;99667.23;67890;1276;1016448;-65
2023/10/02 10:04:42;;;;;;;20.20;5.20;;;;;;;27.93;38.53;99672.98;67822;1276;1016504;-63
2023/10/02 10:07:46;;;;;;;18.90;5.10;;;;;;;27.93;38.91;99667.15;67870;1276;1016421;-64
2023/10/02 10:10:50;;;;;;;20.20;5.30;;;;;;;28.36;39.46;99659.06;67843;1276;1016284;-65
2023/10/02 10:13:59;;;;;;;19.80;5.50;;;;;;;28.80;38.42;99653.00;67840;1276;1016171;-64
2023/10/02 10:17:02;;;;;;;19.80;5.20;;;;;;;29.04;38.31;99652.61;67912;1276;1018758;-64
2023/10/02 10:20:09;;;;;;;21.80;5.50;;;;;;;29.12;38.50;99654.77;67864;1276;1016657;-67
2023/10/02 10:23:11;;;;;;;23.20;5.50;;;;;;;29.38;37.70;99657.70;67867;1276;1016006;-64
2023/10/02 10:26:14;;;;;;;19.40;5.70;;;;;;;28.95;37.42;99665.98;67883;1276;1016432;-66
2023/10/02 10:29:16;;;;;;;20.00;5.30;;;;;;;28.88;38.11;99660.60;67856;1276;1016036;-64
2023/10/02 10:32:23;;;;;;;19.90;5.30;;;;;;;28.48;38.00;99664.12;67844;1276;1016404;-64
2023/10/02 10:35:27;;;;;;;21.40;5.20;;;;;;;28.24;38.64;99653.18;67904;1276;1016501;-66
2023/10/02 10:38:34;;;;;;;18.80;5.30;;;;;;;28.42;39.27;99652.98;67867;1276;1016503;-66
2023/10/02 10:41:40;;;;;;;18.90;4.90;;;;;;;28.91;39.06;99652.53;67880;1276;1016196;-67
2023/10/02 10:44:43;;;;;;;20.70;6.00;;;;;;;29.62;38.58;99645.68;67868;1276;1016133;-65
2023/10/02 10:47:46;;;;;;;20.60;5.70;;;;;;;30.03;38.09;99636.09;67898;1276;1016241;-64
2023/10/02 10:50:57;;;;;;;20.00;5.60;;;;;;;30.33;37.78;99640.37;67854;1276;1018783;-67
2023/10/02 10:54:00;;;;;;;21.10;5.30;;;;;;;30.65;37.57;99636.58;67843;1276;1018715;-67
2023/10/02 10:57:19;;;;;;;20.20;5.50;;;;;;;31.04;37.27;99632.35;67846;1276;1016203;-63
2023/10/02 11:00:31;;;;;;;16.20;4.20;;;;;;;31.01;36.32;99628.27;67879;1276;1016702;-64
2023/10/02 11:03:38;;;;;;;19.00;4.60;;;;;;;30.64;35.42;99631.33;67885;1276;1019310;-65
2023/10/02 11:06:41;;;;;;;18.10;4.80;;;;;;;30.41;36.23;99631.09;67877;1276;1016530;-65
2023/10/02 11:09:45;;;;;;;19.20;4.00;;;;;;;29.86;36.04;99633.08;67858;1276;1016660;-66
2023/10/02 11:12:54;;;;;;;16.60;4.30;;;;;;;29.46;36.29;99627.17;67869;1276;1016675;-65
2023/10/02 11:15:59;;;;;;;17.20;4.20;;;;;;;29.52;36.92;99624.38;67898;1276;1016419;-65
2023/10/02 11:19:10;;;;;;;17.40;4.50;;;;;;;30.01;37.11;99616.73;67874;1276;1015799;-65
2023/10/02 11:22:16;;;;;;;18.10;4.60;;;;;;;30.36;36.56;99615.55;67870;1276;1016333;-66
2023/10/02 11:25:22;;;;;;;19.50;4.50;;;;;;;30.45;35.52;99617.50;67900;1276;1016122;-67
2023/10/02 11:28:24;;;;;;;17.20;4.00;;;;;;;30.45;35.73;99618.16;67888;1276;1019528;-68
2023/10/02 11:31:33;;;;;;;16.80;4.20;;;;;;;30.33;36.28;99619.40;67891;1276;1019422;-68
2023/10/02 11:34:41;;;;;;;20.70;4.10;;;;;;;30.70;36.14;99607.98;67843;1276;1017175;-65
2023/10/02 11:37:43;;;;;;;16.80;4.40;;;;;;;31.15;36.12;99601.77;67846;1276;1016404;-65
2023/10/02 11:40:46;;;;;;;17.40;4.20;;;;;;;30.93;35.67;99610.89;67885;1276;1016128;-63
2023/10/02 11:43:49;;;;;;;12.90;3.60;;;;;;;30.23;36.08;99610.20;67874;1276;1016242;-65
2023/10/02 11:46:52;;;;;;;16.60;4.00;;;;;;;29.56;36.78;99609.44;67861;1276;1016398;-65
2023/10/02 11:49:54;;;;;;;20.00;4.80;;;;;;;29.45;37.24;99610.23;67898;1276;1016288;-64
2023/10/02 11:52:56;;;;;;;16.20;4.60;;;;;;;29.19;37.74;99609.16;67877;1276;1016458;-66
2023/10/02 11:55:59;;;;;;;19.50;5.10;;;;;;;29.09;38.17;99605.45;67836;1276;1016482;-64
2023/10/02 11:59:02;;;;;;;19.00;5.40;;;;;;;29.40;38.43;99602.50;67850;1276;1016446;-65
2023/10/02 12:02:05;;;;;;;19.50;5.20;;;;;;;29.56;37.59;99600.67;67887;1276;1017951;-64
2023/10/02 12:05:07;;;;;;;20.20;4.80;;;;;;;29.37;38.00;99601.20;67862;1276;1016494;-65
2023/10/02 12:08:11;;;;;;;17.50;4.60;;;;;;;29.06;38.38;99600.58;67863;1276;1016463;-65
2023/10/02 12:11:14;;;;;;;19.30;4.90;;;;;;;29.01;38.63;99597.09;67831;1276;1016175;-64
2023/10/02 12:14:16;;;;;;;20.10;5.40;;;;;;;29.03;38.49;99592.86;67890;1276;1016489;-64
2023/10/02 12:17:19;;;;;;;18.80;4.50;;;;;;;29.14;38.65;99591.30;67855;1276;1016531;-64
2023/10/02 12:20:22;;;;;;;18.00;4.60;;;;;;;29.15;38.62;99585.10;67835;1253;1016332;-65
2023/10/02 12:23:25;;;;;;;19.20;4.60;;;;;;;29.25;38.21;99586.41;67869;1276;1016443;-66
2023/10/02 12:26:28;;;;;;;18.10;4.50;;;;;;;29.06;38.27;99586.02;67870;1276;1016358;-66
2023/10/02 12:29:31;;;;;;;19.90;4.70;;;;;;;29.07;38.41;99582.23;67846;1276;1017043;-64
2023/10/02 12:32:33;;;;;;;19.80;4.50;;;;;;;29.55;38.40;99576.34;67851;1276;1016780;-65
2023/10/02 12:35:37;;;;;;;16.60;4.10;;;;;;;29.72;38.26;99573.05;67871;1276;1016442;-64
2023/10/02 12:38:40;;;;;;;13.70;3.80;;;;;;;29.66;38.13;99571.36;67859;1276;1016293;-65
2023/10/02 12:41:43;;;;;;;14.40;3.90;;;;;;;29.71;38.08;99571.89;67911;1276;1016017;-65
2023/10/02 12:44:45;;;;;;;13.30;4.10;;;;;;;30.26;37.58;99570.59;67873;1276;1016576;-65
2023/10/02 12:47:47;;;;;;;16.70;4.30;;;;;;;30.36;37.00;99568.59;67839;1276;1016409;-66
2023/10/02 12:50:50;;;;;;;12.20;3.50;;;;;;;30.28;37.26;99568.98;67905;1276;1016166;-65
2023/10/02 12:53:52;;;;;;;15.40;3.70;;;;;;;30.23;37.35;99567.75;67912;1276;1016502;-65
2023/10/02 12:56:54;;;;;;;13.50;3.60;;;;;;;30.27;36.72;99560.69;67923;1276;1016434;-65
2023/10/02 12:59:57;;;;;;;12.80;3.50;;;;;;;30.19;36.89;99559.30;67893;1276;1016664;-65
2023/10/02 13:02:59;;;;;;;13.30;3.60;;;;;;;30.06;36.50;99557.27;67875;1276;1016395;-64
2023/10/02 13:06:03;;;;;;;14.30;3.60;;;;;;;29.89;37.04;99555.82;67855;1276;1016896;-65
2023/10/02 13:09:09;;;;;;;15.70;3.70;;;;;;;30.09;37.50;99550.45;67866;1276;1016223;-65
2023/10/02 13:12:13;;;;;;;12.70;3.70;;;;;;;30.19;37.21;99551.14;67920;1276;1016587;-65
2023/10/02 13:15:15;;;;;;;13.80;3.50;;;;;;;30.46;37.74;99547.59;67875;1276;1018702;-65
2023/10/02 13:18:17;;;;;;;12.90;3.30;;;;;;;31.08;37.04;99541.52;67883;1276;1016993;-67
2023/10/02 13:21:20;;;;;;;10.90;3.30;;;;;;;31.26;35.99;99538.70;67909;1276;1016450;-65
2023/10/02 13:24:23;;;;;;;12.30;3.10;;;;;;;31.32;35.89;99531.42;67891;1276;1016879;-67
2023/10/02 13:27:26;;;;;;;14.30;3.00;;;;;;;31.08;36.16;99527.33;67893;1276;1016348;-67
2023/10/02 13:30:30;;;;;;;15.40;3.50;;;;;;;30.95;36.59;99527.22;67919;1276;1016355;-65
2023/10/02 13:33:32;;;;;;;11.90;3.30;;;;;;;30.75;36.68;99525.97;67923;1276;1016522;-66
2023/10/02 13:36:35;;;;;;;15.60;3.70;;;;;;;30.60;37.01;99525.42;67914;1253;1018040;-64
2023/10/02 13:39:39;;;;;;;15.50;3.40;;;;;;;30.32;37.04;99527.56;67872;1276;1016952;-65
2023/10/02 13:42:41;;;;;;;12.80;3.30;;;;;;;30.29;37.66;99527.11;67892;1276;1016472;-65
2023/10/02 13:45:45;;;;;;;15.90;3.80;;;;;;;30.21;37.42;99525.19;67883;1276;1016906;-65
2023/10/02 13:48:48;;;;;;;12.60;3.20;;;;;;;30.15;37.57;99524.05;67873;1276;1016393;-65
2023/10/02 13:51:50;;;;;;;12.30;3.50;;;;;;;29.85;37.93;99520.89;67902;1276;1016443;-64
2023/10/02 13:54:53;;;;;;;15.70;3.30;;;;;;;29.72;38.08;99519.88;67907;1276;1016338;-64
2023/10/02 13:57:56;;;;;;;17.90;4.00;;;;;;;29.59;38.44;99519.23;67876;1276;1015983;-65
2023/10/02 14:00:59;;;;;;;13.00;3.70;;;;;;;29.44;38.69;99519.55;67887;1276;1016253;-64
2023/10/02 14:04:03;;;;;;;14.40;3.90;;;;;;;29.10;38.89;99522.30;67851;1276;1019036;-64
2023/10/02 14:07:08;;;;;;;15.90;3.80;;;;;;;28.85;39.30;99515.21;67885;1276;1015992;-64
2023/10/02 14:10:11;;;;;;;16.50;4.00;;;;;;;28.75;39.54;99518.51;67900;1276;1016562;-65
2023/10/02 14:13:13;;;;;;;16.70;4.00;;;;;;;28.84;39.64;99520.08;67883;1276;1016395;-66
2023/10/02 14:16:16;;;;;;;16.20;3.40;;;;;;;28.73;39.53;99521.27;67881;1276;1019388;-65
2023/10/02 14:19:18;;;;;;;13.50;3.60;;;;;;;28.76;39.55;99519.66;67868;1276;1016276;-64
2023/10/02 14:22:20;;;;;;;17.80;3.80;;;;;;;28.78;39.61;99510.54;67901;1276;1016428;-64
2023/10/02 14:25:24;;;;;;;19.70;4.10;;;;;;;28.62;39.64;99511.86;67914;1276;1016447;-65